Aviation Digital Data Service (ADDS)

Output produced by METARs form (1224 UTC 17 September 2019)
found at http://www.aviationweather.gov/metar/data/
 
VTBS 171200Z 19007KT 140V210 9000 -TSRA FEW020CB SCT040 BKN100 28/26 Q1007 NOSIG
VTBS 171130Z 18009KT 9000 -TSRA FEW020CB SCT040 BKN100 29/26 Q1007 TEMPO TL1200 03010G25KT 5000 TSRA
VTBS 171100Z 19008KT 9999 VCTS FEW020CB SCT100 30/25 Q1006 TEMPO FM1110 TL1145 03010G25KT 5000 TSRA
VTBS 171030Z 20008KT 9999 FEW020CB 30/26 Q1005 NOSIG
VTBS 171000Z 20010KT 9999 FEW020 31/26 Q1005 NOSIG
VTBS 170930Z 18012KT 9999 FEW020 31/26 Q1005 NOSIG
VTBS 170900Z 19011KT 160V220 9999 FEW020 32/26 Q1005 NOSIG
VTBS 170830Z 20006KT 160V230 9999 FEW020 33/25 Q1005 NOSIG
VTBS 170800Z 10005KT 040V180 9999 FEW020 34/22 Q1005 NOSIG
VTBS 170730Z 06006KT 020V130 9999 FEW020 34/23 Q1005 NOSIG
VTBS 170700Z 09006KT 9999 FEW020CB 34/23 Q1005 NOSIG
VTBS 170630Z 09006KT 9999 FEW020CB SCT040 34/23 Q1006 NOSIG
VTBS 170600Z 06005G15KT 9999 FEW020CB SCT040 33/23 Q1006 NOSIG
VTBS 170530Z 06007G17KT 010V100 9999 FEW020CB SCT035 33/24 Q1007 NOSIG
VTBS 170500Z 36005KT 290V070 9999 FEW020CB SCT035 33/24 Q1008 NOSIG
VTBS 170430Z 34006KT 250V030 9999 FEW020CB SCT035 32/24 Q1008 NOSIG
VTBS 170400Z 02005KT 350V060 9000 FEW020TCU SCT030 32/25 Q1008 NOSIG
VTBS 170330Z 36005KT 290V060 9000 FEW020TCU SCT030 32/25 Q1009 NOSIG
VTBS 170300Z 04006KT 340V080 9000 SCT020 SCT050 31/25 Q1009 NOSIG
VTBS 170230Z 01005KT 320V100 9000 SCT020 SCT050 31/25 Q1009 NOSIG
VTBS 170200Z 36005KT 220V030 9000 FEW017 30/25 Q1009 NOSIG
VTBS 170130Z 01005KT 340V050 8000 FEW020 29/26 Q1008 NOSIG
VTBS 170100Z 35006KT 320V020 8000 FEW020 28/25 Q1008 NOSIG
VTBS 170030Z 35002KT 6000 FEW020 28/26 Q1008 NOSIG
VTBS 170000Z 00000KT 6000 FEW020 27/26 Q1008 NOSIG
VTBS 162330Z 33002KT 5000 BR FEW020 SCT040 26/25 Q1007 NOSIG
VTBS 162300Z 30003KT 6000 FEW020 SCT040 BKN080 27/26 Q1007 NOSIG
VTBS 162230Z VRB02KT 8000 FEW020 SCT040 26/25 Q1007 NOSIG
VTBS 162200Z 00000KT 8000 FEW020 26/25 Q1007 NOSIG
VTBS 162130Z VRB02KT 9000 FEW020 26/25 Q1006 NOSIG
VTBS 162100Z VRB02KT 9999 FEW020 27/25 Q1006 NOSIG
VTBS 162030Z 00000KT 9999 FEW020 26/25 Q1006 NOSIG
VTBS 162000Z VRB02KT 9999 FEW020 27/25 Q1006 NOSIG
VTBS 161930Z 11003KT 050V170 9999 FEW020 28/25 Q1006 NOSIG
VTBS 161900Z 13004KT 080V190 9999 FEW020 SCT040 28/25 Q1006 NOSIG
VTBS 161830Z 09005KT 040V180 9999 FEW020 BKN100 28/25 Q1007 NOSIG
VTBS 161800Z 10005KT 070V180 9999 FEW020 BKN090 28/25 Q1007 NOSIG
VTBS 161730Z 08006KT 050V160 9999 FEW020 BKN090 28/25 Q1007 NOSIG
VTBS 161700Z 06008KT 040V150 9999 FEW020 BKN090 28/25 Q1008 NOSIG
VTBS 161630Z 07007KT 030V130 9999 FEW020 BKN090 28/25 Q1008 NOSIG
VTBS 161600Z 11006KT 080V180 9999 FEW020 29/25 Q1008 NOSIG
VTBS 161530Z 14007KT 100V180 9999 FEW020 SCT100 29/25 Q1007 NOSIG
VTBS 161500Z 15005KT 100V180 9999 FEW020 SCT100 29/25 Q1007 NOSIG
VTBS 161430Z 15004KT 100V190 9999 FEW020 BKN100 29/24 Q1007 NOSIG
VTBS 161400Z 19003KT 140V230 9999 FEW020 BKN100 28/25 Q1007 NOSIG
VTBS 161330Z VRB02KT 9999 FEW020 BKN100 28/25 Q1006 NOSIG
VTBS 161300Z 19003KT 150V260 9999 FEW020 BKN100 28/25 Q1006 NOSIG
VTBS 161230Z 17005KT 9999 FEW020 BKN100 28/25 Q1006 NOSIG
TAF VTBS 171100Z 1712/1818 22008KT 9000 FEW020 SCT100 
     TEMPO 1712/1717 03010G25KT 5000 TSRA FEW018CB SCT030 BKN100 
     BECMG 1720/1722 00000KT 6000 
     BECMG 1801/1803 03008KT 9000